Time;durP1;ratioP1;P1;durP2;ratioP2;P2;SDS_P1;SDS_P2;PMS_P1;PMS_P2;Temp;Humidity;BMP_temperature;BMP_pressure;BME280_temperature;BME280_humidity;BME280_pressure;Samples;Min_cycle;Max_cycle;Signal;HPM_P1;HPM_P2
2023/10/04 00:00:15;;;;;;;11.02;2.17;;;;;;;11.60;100.00;102394.78;5053483;28;20014;-91
2023/10/04 00:02:43;;;;;;;8.73;1.80;;;;;;;11.44;100.00;102390.03;5033855;28;20124;-93
2023/10/04 00:05:08;;;;;;;9.43;2.00;;;;;;;11.31;100.00;102394.53;5032824;28;20840;-92
2023/10/04 00:07:34;;;;;;;10.65;2.60;;;;;;;11.22;100.00;102401.22;5033443;28;20032;-91
2023/10/04 00:10:04;;;;;;;10.90;2.10;;;;;;;11.19;100.00;102410.56;5032375;28;20021;-92
2023/10/04 00:12:29;;;;;;;10.77;2.00;;;;;;;11.16;100.00;102407.47;5033218;28;20021;-92
2023/10/04 00:14:56;;;;;;;8.32;1.92;;;;;;;11.16;100.00;102407.47;5033099;28;20033;-92
2023/10/04 00:17:21;;;;;;;12.73;2.00;;;;;;;11.08;100.00;102405.09;5033159;28;20026;-92
2023/10/04 00:19:47;;;;;;;7.83;2.00;;;;;;;11.03;100.00;102413.81;5030369;28;20350;-92
2023/10/04 00:22:13;;;;;;;11.90;1.80;;;;;;;10.98;100.00;102406.41;5033115;28;20036;-92
2023/10/04 00:24:38;;;;;;;5.00;2.00;;;;;;;10.99;100.00;102412.63;5032498;28;20026;-92
2023/10/04 00:27:04;;;;;;;8.60;2.30;;;;;;;11.08;100.00;102418.50;5030843;28;20112;-93
2023/10/04 00:29:30;;;;;;;11.03;1.67;;;;;;;11.15;100.00;102400.47;5032448;28;20432;-93
2023/10/04 00:31:56;;;;;;;13.68;2.42;;;;;;;11.23;100.00;102397.50;5032241;28;20030;-93
2023/10/04 00:34:22;;;;;;;7.20;1.52;;;;;;;11.33;100.00;102403.16;5032352;28;20049;-93
2023/10/04 00:36:48;;;;;;;6.43;1.80;;;;;;;11.37;100.00;102390.13;5031708;28;20065;-91
2023/10/04 00:39:13;;;;;;;6.60;1.70;;;;;;;11.39;100.00;102403.31;5033436;28;20045;-92
2023/10/04 00:41:40;;;;;;;5.83;2.00;;;;;;;11.32;100.00;102401.50;5039811;28;20053;-93
2023/10/04 00:44:07;;;;;;;10.25;1.85;;;;;;;11.33;100.00;102405.03;5036750;28;20112;-91
2023/10/04 00:46:36;;;;;;;10.38;2.13;;;;;;;11.32;100.00;102400.72;5036933;28;20370;-92
2023/10/04 00:49:04;;;;;;;11.80;2.20;;;;;;;11.28;100.00;102400.34;5037656;28;20026;-91
2023/10/04 00:51:35;;;;;;;8.52;1.88;;;;;;;11.23;100.00;102407.44;5031755;28;20037;-93
2023/10/04 00:54:07;;;;;;;14.40;2.15;;;;;;;11.17;100.00;102415.31;5032421;28;20403;-91
2023/10/04 00:56:36;;;;;;;7.70;2.05;;;;;;;11.13;100.00;102418.69;5028927;28;20036;-91
2023/10/04 00:59:03;;;;;;;6.93;1.70;;;;;;;11.10;100.00;102424.47;5032068;28;20542;-92
2023/10/04 01:01:30;;;;;;;11.40;2.00;;;;;;;11.13;100.00;102429.41;5030058;28;20029;-91
2023/10/04 01:03:55;;;;;;;12.18;2.50;;;;;;;11.15;100.00;102425.44;5031870;28;20022;-91
2023/10/04 01:06:21;;;;;;;9.10;2.60;;;;;;;11.15;100.00;102428.13;5030536;28;20376;-91
2023/10/04 01:08:47;;;;;;;11.00;2.22;;;;;;;11.17;100.00;102428.72;5032036;28;20038;-90
2023/10/04 01:11:13;;;;;;;11.35;2.42;;;;;;;11.09;100.00;102430.88;5032346;28;20030;-90
2023/10/04 01:13:40;;;;;;;6.90;2.00;;;;;;;11.08;100.00;102431.94;5031966;28;20056;-89
2023/10/04 01:16:09;;;;;;;13.65;2.20;;;;;;;11.04;100.00;102427.00;5030351;28;20033;-89
2023/10/04 01:18:35;;;;;;;11.30;2.50;;;;;;;11.04;100.00;102434.25;5030805;28;20159;-89
2023/10/04 01:21:01;;;;;;;11.43;2.55;;;;;;;11.00;100.00;102436.53;5030290;28;20112;-89
2023/10/04 01:23:28;;;;;;;7.13;2.13;;;;;;;11.02;100.00;102434.44;5029913;28;20548;-89
2023/10/04 01:25:53;;;;;;;8.57;2.00;;;;;;;10.99;100.00;102437.56;5030728;28;20075;-90
2023/10/04 01:28:27;;;;;;;10.87;2.10;;;;;;;11.03;100.00;102440.66;5029494;28;20033;-90
2023/10/04 01:30:56;;;;;;;11.00;2.53;;;;;;;11.03;100.00;102438.78;5029885;28;20025;-91
2023/10/04 01:33:21;;;;;;;9.20;2.05;;;;;;;11.02;100.00;102437.13;5032757;28;20535;-90
2023/10/04 01:35:49;;;;;;;8.17;2.20;;;;;;;10.99;100.00;102437.56;5032113;28;20026;-91
2023/10/04 01:38:15;;;;;;;8.13;2.13;;;;;;;10.92;100.00;102434.16;5035737;28;20089;-91
2023/10/04 01:40:43;;;;;;;12.20;2.03;;;;;;;10.92;100.00;102439.50;5021565;28;20374;-91
2023/10/04 01:43:15;;;;;;;15.90;2.47;;;;;;;10.97;100.00;102450.38;5024679;28;20021;-90
2023/10/04 01:45:47;;;;;;;9.57;2.17;;;;;;;10.94;100.00;102433.91;5031488;28;20035;-90
2023/10/04 01:48:15;;;;;;;11.30;2.03;;;;;;;10.95;100.00;102441.75;5026226;28;20137;-89
2023/10/04 01:50:44;;;;;;;10.77;2.10;;;;;;;10.96;100.00;102440.69;5025410;28;20469;-91
2023/10/04 01:53:10;;;;;;;9.85;2.28;;;;;;;10.96;100.00;102446.03;5032472;28;20052;-90
2023/10/04 01:55:36;;;;;;;9.43;2.17;;;;;;;10.93;100.00;102446.50;5031616;28;20025;-90
2023/10/04 01:58:01;;;;;;;8.50;2.20;;;;;;;11.02;100.00;102444.38;5027331;28;20022;-90
2023/10/04 02:00:28;;;;;;;13.07;2.80;;;;;;;11.10;100.00;102446.75;5031419;28;20025;-90
2023/10/04 02:02:54;;;;;;;9.52;1.98;;;;;;;11.15;100.00;102454.13;5031364;28;20065;-91
2023/10/04 02:05:26;;;;;;;9.32;2.13;;;;;;;11.12;100.00;102438.50;5020498;28;20048;-90
2023/10/04 02:07:52;;;;;;;9.43;1.90;;;;;;;11.19;100.00;102439.22;5025051;28;20477;-90
2023/10/04 02:10:18;;;;;;;6.90;2.00;;;;;;;11.18;100.00;102445.63;5031140;28;20025;-90
2023/10/04 02:12:44;;;;;;;9.23;2.13;;;;;;;11.13;100.00;102435.56;5030574;28;20346;-91
2023/10/04 02:15:14;;;;;;;11.30;2.30;;;;;;;11.16;100.00;102434.31;5030262;28;20389;-90
2023/10/04 02:17:41;;;;;;;11.25;2.50;;;;;;;11.15;100.00;102438.03;5029778;28;20417;-90
2023/10/04 02:20:13;;;;;;;11.50;2.20;;;;;;;11.12;100.00;102436.63;5031662;28;20452;-91
2023/10/04 02:22:38;;;;;;;9.97;2.33;;;;;;;11.18;100.00;102437.59;5029950;28;20303;-92
2023/10/04 02:25:06;;;;;;;9.60;2.33;;;;;;;11.20;100.00;102435.50;5023360;28;20399;-91
2023/10/04 02:27:32;;;;;;;10.13;2.25;;;;;;;11.18;100.00;102429.53;5032150;28;20041;-89
2023/10/04 02:29:57;;;;;;;9.63;2.20;;;;;;;11.21;100.00;102421.06;5031513;28;20017;-88
2023/10/04 02:32:25;;;;;;;12.10;1.95;;;;;;;11.23;100.00;102432.38;5026646;28;20032;-89
2023/10/04 02:34:52;;;;;;;7.53;2.00;;;;;;;11.28;100.00;102435.22;5027983;28;20116;-88
2023/10/04 02:37:19;;;;;;;7.80;2.00;;;;;;;11.27;100.00;102433.59;5012523;28;20036;-88
2023/10/04 02:39:44;;;;;;;10.50;2.25;;;;;;;11.28;100.00;102429.88;5032569;28;20014;-87
2023/10/04 02:42:09;;;;;;;11.23;2.67;;;;;;;11.27;100.00;102430.91;5053197;28;20029;-88
2023/10/04 02:44:39;;;;;;;11.27;2.20;;;;;;;11.29;100.00;102439.56;5052673;28;20113;-88
2023/10/04 02:47:08;;;;;;;12.50;2.50;;;;;;;11.27;100.00;102440.81;5051934;28;20025;-88
2023/10/04 02:49:37;;;;;;;10.60;2.40;;;;;;;11.29;100.00;102442.25;5054636;28;20305;-88
2023/10/04 02:52:07;;;;;;;8.95;1.85;;;;;;;11.29;100.00;102447.59;5054704;28;20006;-88
2023/10/04 02:54:33;;;;;;;10.40;2.33;;;;;;;11.26;100.00;102450.72;5049518;28;20014;-86
2023/10/04 02:57:00;;;;;;;11.65;2.10;;;;;;;11.20;100.00;102451.59;5025972;28;20077;-88
2023/10/04 02:59:26;;;;;;;14.63;2.30;;;;;;;11.16;100.00;102456.59;5011602;28;20041;-88
2023/10/04 03:01:52;;;;;;;13.37;2.30;;;;;;;11.17;100.00;102454.72;5016607;28;20045;-88
2023/10/04 03:04:19;;;;;;;9.40;2.30;;;;;;;11.16;100.00;102448.56;5024589;28;20295;-88
2023/10/04 03:06:45;;;;;;;14.30;2.55;;;;;;;11.10;100.00;102445.94;5039597;28;20022;-88
2023/10/04 03:09:12;;;;;;;7.00;2.10;;;;;;;11.13;100.00;102449.00;5036406;28;20112;-89
2023/10/04 03:11:41;;;;;;;10.27;2.67;;;;;;;11.12;100.00;102452.72;5029606;28;20018;-87
2023/10/04 03:14:07;;;;;;;6.95;1.83;;;;;;;11.08;100.00;102456.06;5022590;28;20060;-87
2023/10/04 03:16:34;;;;;;;10.33;2.33;;;;;;;11.06;100.00;102449.06;5030218;28;20061;-87
2023/10/04 03:19:00;;;;;;;12.50;2.28;;;;;;;10.98;100.00;102465.44;5030012;28;20441;-88
2023/10/04 03:21:30;;;;;;;12.35;2.58;;;;;;;10.92;100.00;102460.97;5031361;28;20025;-87
2023/10/04 03:23:56;;;;;;;11.55;2.75;;;;;;;10.83;100.00;102471.16;5029168;28;20185;-87
2023/10/04 03:26:22;;;;;;;8.07;2.20;;;;;;;10.73;100.00;102470.78;5033380;28;20002;-87
2023/10/04 03:28:48;;;;;;;15.20;2.87;;;;;;;10.63;100.00;102459.75;5049928;28;20028;-88
2023/10/04 03:31:14;;;;;;;9.60;2.60;;;;;;;10.61;100.00;102468.00;5054839;28;20021;-87
2023/10/04 03:33:43;;;;;;;16.52;2.50;;;;;;;10.53;100.00;102463.72;5054692;28;20014;-87
2023/10/04 03:36:09;;;;;;;10.57;2.28;;;;;;;10.47;100.00;102475.34;5048149;28;20026;-88
2023/10/04 03:38:35;;;;;;;10.00;2.67;;;;;;;10.40;100.00;102469.19;5054877;28;20038;-87
2023/10/04 03:41:04;;;;;;;10.73;2.73;;;;;;;10.37;100.00;102473.09;5052813;28;20052;-88
2023/10/04 03:43:30;;;;;;;12.52;2.72;;;;;;;10.35;100.00;102472.50;5032194;28;20029;-87
2023/10/04 03:45:55;;;;;;;11.30;2.35;;;;;;;10.31;100.00;102452.50;5032491;28;20068;-88
2023/10/04 03:48:23;;;;;;;9.93;2.20;;;;;;;10.22;100.00;102456.50;5032192;28;20068;-88
2023/10/04 03:50:50;;;;;;;10.80;2.60;;;;;;;10.21;100.00;102461.03;5034653;28;20032;-88
2023/10/04 03:53:16;;;;;;;11.27;2.53;;;;;;;10.14;100.00;102455.72;5037994;28;20388;-87
2023/10/04 03:55:46;;;;;;;8.38;2.30;;;;;;;10.12;100.00;102455.09;5039145;28;20033;-87
2023/10/04 03:58:12;;;;;;;9.05;2.60;;;;;;;10.10;100.00;102448.31;5031836;28;20030;-88
2023/10/04 04:00:38;;;;;;;13.03;3.17;;;;;;;10.09;100.00;102438.63;5027951;28;20395;-88
2023/10/04 04:03:04;;;;;;;14.82;2.65;;;;;;;10.11;100.00;102442.75;5032040;28;20117;-88
2023/10/04 04:05:31;;;;;;;11.55;2.08;;;;;;;10.07;100.00;102438.84;5030676;28;20026;-88
2023/10/04 04:07:56;;;;;;;11.57;2.92;;;;;;;10.03;100.00;102447.53;5030189;28;20045;-87
2023/10/04 04:10:23;;;;;;;12.03;2.70;;;;;;;10.02;100.00;102451.25;5032010;28;20128;-87
2023/10/04 04:12:49;;;;;;;11.68;2.72;;;;;;;9.94;100.00;102452.31;5032005;28;20033;-87
2023/10/04 04:15:15;;;;;;;11.02;3.03;;;;;;;9.95;100.00;102461.97;5030530;28;20446;-86
2023/10/04 04:17:41;;;;;;;14.43;2.60;;;;;;;9.95;100.00;102451.28;5030712;28;20033;-87
2023/10/04 04:20:14;;;;;;;13.85;2.90;;;;;;;9.88;100.00;102439.75;5025411;28;20029;-87
2023/10/04 04:22:51;;;;;;;16.60;3.03;;;;;;;9.93;100.00;102438.09;5027276;28;20112;-87
2023/10/04 04:25:26;;;;;;;11.57;2.90;;;;;;;9.96;100.00;102447.56;5036980;28;20047;-87
2023/10/04 04:27:53;;;;;;;13.10;2.67;;;;;;;9.96;100.00;102440.34;5032477;28;20029;-87
2023/10/04 04:30:21;;;;;;;18.00;2.63;;;;;;;9.90;100.00;102432.34;5032930;28;20024;-87
2023/10/04 04:32:47;;;;;;;18.97;3.20;;;;;;;9.85;100.00;102439.19;5036706;28;20810;-88
2023/10/04 04:35:22;;;;;;;17.05;2.85;;;;;;;9.85;100.00;102443.69;5034716;28;20025;-88
2023/10/04 04:37:54;;;;;;;14.35;2.85;;;;;;;9.79;100.00;102441.84;5030953;28;20488;-87
2023/10/04 04:40:25;;;;;;;12.20;2.92;;;;;;;9.77;100.00;102441.28;5018356;28;20025;-87
2023/10/04 04:42:51;;;;;;;14.45;2.90;;;;;;;9.75;100.00;102446.03;5029615;28;20037;-88
2023/10/04 04:45:16;;;;;;;14.47;3.03;;;;;;;9.71;100.00;102450.94;5029058;28;20055;-88
2023/10/04 04:47:44;;;;;;;9.13;2.78;;;;;;;9.70;100.00;102455.50;5030388;28;20025;-87
2023/10/04 04:50:10;;;;;;;15.17;2.87;;;;;;;9.69;100.00;102427.09;5029663;28;20021;-88
2023/10/04 04:52:36;;;;;;;10.50;2.63;;;;;;;9.69;100.00;102431.59;5028878;28;20300;-88
2023/10/04 04:55:02;;;;;;;15.30;3.20;;;;;;;9.72;100.00;102444.56;5030634;28;20104;-88
2023/10/04 04:57:30;;;;;;;13.85;3.13;;;;;;;9.67;100.00;102439.06;5031029;28;20025;-87
2023/10/04 04:59:56;;;;;;;14.70;2.80;;;;;;;9.63;100.00;102432.47;5021763;28;20021;-87
2023/10/04 05:02:25;;;;;;;15.40;2.70;;;;;;;9.60;100.00;102431.03;5029024;28;20453;-89
2023/10/04 05:04:51;;;;;;;11.63;2.72;;;;;;;9.56;100.00;102427.16;5030293;28;20040;-92
2023/10/04 05:07:17;;;;;;;12.90;3.13;;;;;;;9.60;100.00;102432.91;5032117;28;20033;-91
2023/10/04 05:09:43;;;;;;;21.87;3.30;;;;;;;9.59;100.00;102452.66;5029549;28;20136;-91
2023/10/04 05:12:08;;;;;;;18.93;2.97;;;;;;;9.49;100.00;102459.28;5033229;28;20295;-94
2023/10/04 05:14:39;;;;;;;12.38;2.63;;;;;;;9.48;100.00;102467.50;5033659;28;20036;-95
2023/10/04 05:17:04;;;;;;;19.17;3.37;;;;;;;9.42;100.00;102471.84;5032840;28;20040;-90
2023/10/04 05:19:30;;;;;;;13.43;2.95;;;;;;;9.38;100.00;102475.97;5028987;28;20029;-89
2023/10/04 05:21:55;;;;;;;15.57;3.00;;;;;;;9.33;100.00;102497.16;5029857;28;20353;-88
2023/10/04 05:24:21;;;;;;;17.37;3.40;;;;;;;9.34;100.00;102504.16;5032883;28;20032;-89
2023/10/04 05:26:47;;;;;;;14.43;3.10;;;;;;;9.32;100.00;102492.84;5035932;28;20398;-88
2023/10/04 05:29:12;;;;;;;24.10;3.13;;;;;;;9.37;100.00;102499.25;5025440;28;20026;-89
2023/10/04 05:31:38;;;;;;;23.15;3.17;;;;;;;9.35;100.00;102489.75;5019037;28;20036;-90
2023/10/04 05:34:03;;;;;;;17.93;3.20;;;;;;;9.37;100.00;102493.88;5041172;28;20049;-89
2023/10/04 05:36:29;;;;;;;13.00;3.47;;;;;;;9.43;100.00;102481.53;5031067;28;20061;-89
2023/10/04 05:38:54;;;;;;;13.43;3.00;;;;;;;9.42;100.00;102474.53;5031984;28;20025;-88
2023/10/04 05:41:20;;;;;;;14.60;3.20;;;;;;;9.35;100.00;102485.25;5031394;28;20030;-88
2023/10/04 05:43:45;;;;;;;13.60;2.97;;;;;;;9.33;100.00;102492.66;5034083;28;20025;-88
2023/10/04 05:46:10;;;;;;;12.37;2.50;;;;;;;9.26;100.00;102491.81;5030057;28;20029;-88
2023/10/04 05:48:36;;;;;;;21.17;3.47;;;;;;;9.29;100.00;102506.66;5027979;28;20026;-88
2023/10/04 05:51:01;;;;;;;17.53;3.00;;;;;;;9.29;100.00;102495.97;5030670;28;20287;-89
2023/10/04 05:53:27;;;;;;;9.63;3.00;;;;;;;9.30;100.00;102503.75;5030256;28;20017;-83
2023/10/04 05:55:52;;;;;;;20.75;2.95;;;;;;;9.34;100.00;102515.69;5029059;28;20022;-87
2023/10/04 05:58:18;;;;;;;16.27;3.10;;;;;;;9.33;100.00;102518.56;5029943;28;20022;-83
2023/10/04 06:00:52;;;;;;;11.45;3.28;;;;;;;9.31;100.00;102508.09;5027753;28;20018;-83
2023/10/04 06:03:17;;;;;;;10.23;2.90;;;;;;;9.30;100.00;102511.78;5030006;28;20034;-82
2023/10/04 06:05:43;;;;;;;14.60;3.20;;;;;;;9.32;100.00;102519.59;5028764;28;20535;-82
2023/10/04 06:08:12;;;;;;;17.97;2.90;;;;;;;9.35;100.00;102516.50;5030547;28;20388;-82
2023/10/04 06:10:40;;;;;;;20.70;2.90;;;;;;;9.36;100.00;102516.31;5028621;28;20288;-83
2023/10/04 06:13:11;;;;;;;12.90;2.83;;;;;;;9.42;100.00;102516.50;5028760;28;20036;-83
2023/10/04 06:15:44;;;;;;;14.55;3.08;;;;;;;9.43;100.00;102521.66;5041182;28;20030;-83
2023/10/04 06:18:11;;;;;;;12.87;3.23;;;;;;;9.45;100.00;102532.13;5031338;28;20120;-83
2023/10/04 06:20:38;;;;;;;11.65;2.60;;;;;;;9.49;100.00;102531.53;5028059;28;20033;-83
2023/10/04 06:23:06;;;;;;;17.80;3.17;;;;;;;9.52;100.00;102525.75;5028591;28;20037;-84
2023/10/04 06:25:40;;;;;;;17.20;3.72;;;;;;;9.57;100.00;102535.00;5028169;28;20091;-83
2023/10/04 06:28:05;;;;;;;17.50;3.03;;;;;;;9.61;100.00;102536.25;5025689;28;20030;-83
2023/10/04 06:30:33;;;;;;;11.50;3.17;;;;;;;9.61;100.00;102530.88;5028651;28;20102;-84
2023/10/04 06:33:03;;;;;;;14.70;2.92;;;;;;;9.68;100.00;102539.72;5029523;28;20032;-84
2023/10/04 06:35:29;;;;;;;15.98;3.20;;;;;;;9.73;100.00;102539.91;5027754;28;20691;-84
2023/10/04 06:37:56;;;;;;;14.77;3.28;;;;;;;9.75;100.00;102548.56;5026856;28;20033;-84
2023/10/04 06:40:23;;;;;;;12.30;3.22;;;;;;;9.80;100.00;102547.91;5015554;28;20038;-82
2023/10/04 06:42:50;;;;;;;17.25;3.05;;;;;;;9.82;100.00;102546.69;5021563;28;20714;-83
2023/10/04 06:45:17;;;;;;;13.33;3.23;;;;;;;9.90;100.00;102550.16;5023534;28;20040;-84
2023/10/04 06:47:44;;;;;;;13.17;2.97;;;;;;;9.93;100.00;102550.59;5024424;28;20284;-84
2023/10/04 06:50:28;;;;;;;14.32;3.30;;;;;;;9.97;100.00;102559.81;5023399;28;20108;-84
2023/10/04 06:52:58;;;;;;;16.48;3.33;;;;;;;10.05;100.00;102550.72;5024662;28;20057;-83
2023/10/04 06:55:24;;;;;;;13.00;3.15;;;;;;;10.13;100.00;102558.53;5029105;28;20026;-83
2023/10/04 06:57:49;;;;;;;17.63;3.30;;;;;;;10.17;100.00;102561.59;5025150;28;20041;-85
2023/10/04 07:00:17;;;;;;;14.37;2.73;;;;;;;10.28;100.00;102560.09;5027449;28;20026;-85
2023/10/04 07:02:45;;;;;;;18.40;3.90;;;;;;;10.30;100.00;102552.69;5028386;28;20029;-84
2023/10/04 07:05:16;;;;;;;10.00;3.37;;;;;;;10.40;100.00;102554.94;5032368;28;20024;-84
2023/10/04 07:07:43;;;;;;;14.13;3.17;;;;;;;10.51;100.00;102556.94;5033189;28;20276;-84
2023/10/04 07:10:09;;;;;;;16.77;3.45;;;;;;;10.60;100.00;102549.44;5032100;28;20094;-84
2023/10/04 07:12:35;;;;;;;14.98;3.60;;;;;;;10.68;100.00;102551.88;5030309;28;20045;-84
2023/10/04 07:15:04;;;;;;;13.43;3.13;;;;;;;10.79;100.00;102560.25;5026237;28;20048;-83
2023/10/04 07:17:30;;;;;;;14.90;3.65;;;;;;;10.89;100.00;102553.38;5031551;28;20532;-83
2023/10/04 07:19:58;;;;;;;11.43;3.20;;;;;;;11.00;100.00;102553.75;5032673;28;20033;-84
2023/10/04 07:22:29;;;;;;;14.23;3.30;;;;;;;11.08;100.00;102549.97;5028208;28;20029;-84
2023/10/04 07:24:55;;;;;;;18.88;3.60;;;;;;;11.23;100.00;102565.75;5027282;28;20103;-84
2023/10/04 07:27:21;;;;;;;16.83;3.57;;;;;;;11.28;100.00;102563.19;5030709;28;20079;-83
2023/10/04 07:29:46;;;;;;;12.37;3.23;;;;;;;11.38;100.00;102566.22;5032392;28;20300;-84
2023/10/04 07:32:11;;;;;;;15.83;2.97;;;;;;;11.41;100.00;102565.75;5030227;28;20021;-85
2023/10/04 07:34:37;;;;;;;15.83;3.10;;;;;;;11.52;100.00;102561.53;5026283;28;20022;-87
2023/10/04 07:37:03;;;;;;;11.90;3.03;;;;;;;11.61;100.00;102570.94;5031473;28;20473;-87
2023/10/04 07:39:29;;;;;;;13.60;3.00;;;;;;;11.66;100.00;102568.44;5029774;28;20017;-87
2023/10/04 07:41:54;;;;;;;15.65;3.40;;;;;;;11.81;100.00;102575.28;5026061;28;20036;-87
2023/10/04 07:44:20;;;;;;;11.53;2.70;;;;;;;11.89;100.00;102583.03;5032791;28;20032;-87
2023/10/04 07:46:45;;;;;;;13.37;3.30;;;;;;;11.92;100.00;102579.91;5027706;28;20152;-83
2023/10/04 07:49:11;;;;;;;14.97;3.50;;;;;;;12.01;100.00;102588.53;5033054;28;20655;-83
2023/10/04 07:51:36;;;;;;;11.83;3.40;;;;;;;12.05;100.00;102588.91;5027886;28;20026;-86
2023/10/04 07:54:02;;;;;;;14.20;3.60;;;;;;;12.17;100.00;102597.84;5032401;28;20430;-84
2023/10/04 07:56:28;;;;;;;13.60;3.50;;;;;;;12.26;100.00;102601.06;5019068;28;20025;-85
2023/10/04 07:58:53;;;;;;;16.10;3.30;;;;;;;12.31;100.00;102589.63;5030262;28;20319;-87
2023/10/04 08:01:18;;;;;;;15.23;3.33;;;;;;;12.46;100.00;102598.09;5030303;28;20036;-86
2023/10/04 08:03:43;;;;;;;11.93;3.13;;;;;;;12.62;100.00;102590.44;5030598;28;20336;-85
2023/10/04 08:06:12;;;;;;;14.13;3.10;;;;;;;12.75;100.00;102598.34;5026786;28;20403;-86
2023/10/04 08:08:41;;;;;;;10.38;3.00;;;;;;;12.94;100.00;102609.03;5027331;28;20025;-85
2023/10/04 08:11:10;;;;;;;10.97;3.13;;;;;;;13.05;100.00;102605.56;5017933;28;20460;-85
2023/10/04 08:13:36;;;;;;;18.48;3.80;;;;;;;13.22;100.00;102602.19;5021646;28;20112;-86
2023/10/04 08:16:03;;;;;;;11.13;2.95;;;;;;;13.31;100.00;102611.56;5023097;28;20511;-85
2023/10/04 08:18:29;;;;;;;15.50;3.45;;;;;;;13.40;100.00;102604.81;5024240;28;20026;-85
2023/10/04 08:20:54;;;;;;;12.87;3.23;;;;;;;13.51;100.00;102602.38;5022053;28;20025;-85
2023/10/04 08:23:21;;;;;;;10.43;3.30;;;;;;;13.60;100.00;102600.94;5031026;28;20025;-84
2023/10/04 08:25:49;;;;;;;11.25;2.90;;;;;;;13.65;100.00;102611.84;5037221;28;20033;-84
2023/10/04 08:28:15;;;;;;;14.75;3.45;;;;;;;13.67;100.00;102617.81;5035533;28;20435;-84
2023/10/04 08:30:41;;;;;;;13.53;3.50;;;;;;;13.67;100.00;102617.00;5034905;28;20021;-85
2023/10/04 08:33:08;;;;;;;16.58;3.22;;;;;;;13.69;100.00;102623.81;5181985;22;20468;-84
2023/10/04 08:35:36;;;;;;;15.73;3.33;;;;;;;13.66;100.00;102624.25;5009630;28;20030;-84
2023/10/04 08:38:04;;;;;;;13.10;2.93;;;;;;;13.72;100.00;102626.00;4999144;28;20022;-85
2023/10/04 08:40:30;;;;;;;13.93;3.13;;;;;;;13.82;100.00;102628.09;5011725;28;20091;-84
2023/10/04 08:42:58;;;;;;;11.40;2.70;;;;;;;13.94;100.00;102614.63;5009468;28;20034;-85
2023/10/04 08:45:27;;;;;;;12.68;3.33;;;;;;;14.23;100.00;102634.38;5009115;28;20476;-85
2023/10/04 08:47:57;;;;;;;12.73;3.55;;;;;;;14.41;100.00;102631.75;5013059;28;20025;-85
2023/10/04 08:50:46;;;;;;;13.77;2.92;;;;;;;14.49;100.00;102634.06;5011944;28;20038;-85
2023/10/04 08:53:34;;;;;;;9.50;2.87;;;;;;;14.59;100.00;102633.44;5011794;28;20068;-86
2023/10/04 08:56:05;;;;;;;21.50;3.47;;;;;;;14.54;100.00;102628.78;5024155;28;20301;-86
2023/10/04 08:58:31;;;;;;;15.15;3.28;;;;;;;14.65;100.00;102637.88;5012814;28;20426;-85
2023/10/04 09:00:57;;;;;;;14.13;3.28;;;;;;;14.69;100.00;102630.97;5010265;28;20480;-85
2023/10/04 09:03:24;;;;;;;12.30;3.35;;;;;;;14.77;100.00;102641.38;5011377;28;20064;-87
2023/10/04 09:05:52;;;;;;;15.50;3.03;;;;;;;14.85;100.00;102634.75;5011762;28;20037;-86
2023/10/04 09:08:17;;;;;;;10.40;3.08;;;;;;;15.05;100.00;102644.28;5012928;28;20036;-86
2023/10/04 09:10:44;;;;;;;10.77;3.13;;;;;;;15.18;100.00;102643.94;5011629;28;20026;-85
2023/10/04 09:13:10;;;;;;;13.50;3.10;;;;;;;15.21;100.00;102646.16;5011768;28;20040;-86
2023/10/04 09:15:37;;;;;;;13.18;2.92;;;;;;;15.26;100.00;102637.31;5009332;28;20025;-86
2023/10/04 09:18:04;;;;;;;12.43;3.10;;;;;;;15.34;100.00;102642.31;5012633;28;20355;-85
2023/10/04 09:20:31;;;;;;;10.65;3.00;;;;;;;15.44;100.00;102644.38;5013796;28;20045;-86
2023/10/04 09:22:59;;;;;;;11.88;2.83;;;;;;;15.63;100.00;102641.41;5012051;28;20117;-85
2023/10/04 09:25:35;;;;;;;12.33;3.13;;;;;;;15.68;100.00;102636.88;5009721;28;20418;-85
2023/10/04 09:28:00;;;;;;;15.25;2.80;;;;;;;15.77;100.00;102639.19;5009719;28;20068;-86
2023/10/04 09:30:26;;;;;;;13.67;3.47;;;;;;;15.76;100.00;102627.53;5010353;28;20432;-87
2023/10/04 09:32:51;;;;;;;8.30;2.60;;;;;;;15.77;100.00;102631.06;5012451;28;20037;-86
2023/10/04 09:35:20;;;;;;;13.97;3.27;;;;;;;15.78;100.00;102616.50;5030674;28;20030;-86
2023/10/04 09:37:49;;;;;;;11.82;3.40;;;;;;;15.83;100.00;102619.25;5036629;28;20041;-86
2023/10/04 09:40:17;;;;;;;11.38;3.30;;;;;;;15.84;100.00;102631.69;5031556;28;20029;-86
2023/10/04 09:42:53;;;;;;;14.90;2.80;;;;;;;15.88;100.00;102628.31;5020129;28;20026;-85
2023/10/04 09:45:26;;;;;;;10.60;3.23;;;;;;;15.86;100.00;102641.25;5012816;28;20354;-87
2023/10/04 09:47:53;;;;;;;10.27;3.30;;;;;;;15.80;100.00;102634.09;5013591;28;20029;-88
2023/10/04 09:50:23;;;;;;;12.07;3.33;;;;;;;15.78;100.00;102627.31;5014296;28;20022;-89
2023/10/04 09:52:49;;;;;;;10.20;2.70;;;;;;;15.78;100.00;102621.91;5014239;28;20116;-88
2023/10/04 09:55:15;;;;;;;10.25;3.20;;;;;;;15.84;100.00;102632.53;5012824;28;20030;-86
2023/10/04 09:57:43;;;;;;;10.93;3.00;;;;;;;15.95;100.00;102638.09;5011327;28;20041;-85
2023/10/04 10:00:17;;;;;;;11.27;3.17;;;;;;;15.99;100.00;102639.22;5012154;28;20289;-86
2023/10/04 10:02:48;;;;;;;15.00;3.30;;;;;;;16.03;100.00;102633.06;5009291;28;20512;-87
2023/10/04 10:05:32;;;;;;;12.18;3.10;;;;;;;16.08;100.00;102626.09;5010513;28;20108;-87
2023/10/04 10:08:06;;;;;;;12.63;2.92;;;;;;;16.02;100.00;102647.66;5010507;28;20167;-86
2023/10/04 10:10:37;;;;;;;10.35;3.05;;;;;;;15.99;100.00;102650.84;5010081;28;20025;-86
2023/10/04 10:13:04;;;;;;;11.20;3.38;;;;;;;16.02;100.00;102641.44;5008489;28;20037;-86
2023/10/04 10:15:31;;;;;;;13.10;3.67;;;;;;;16.04;100.00;102648.22;5008099;28;20026;-87
2023/10/04 10:17:57;;;;;;;14.93;3.30;;;;;;;16.04;100.00;102650.94;5024399;28;20296;-87
2023/10/04 10:20:22;;;;;;;11.90;3.20;;;;;;;16.08;100.00;102651.25;5012340;28;20025;-86
2023/10/04 10:22:57;;;;;;;14.60;3.70;;;;;;;16.13;100.00;102655.91;5011546;28;20122;-86
2023/10/04 10:25:23;;;;;;;15.38;3.20;;;;;;;16.13;100.00;102647.81;5011432;28;20489;-87
2023/10/04 10:27:49;;;;;;;10.13;3.20;;;;;;;16.11;100.00;102647.22;5008086;28;20041;-88
2023/10/04 10:30:16;;;;;;;11.48;2.60;;;;;;;16.04;100.00;102640.13;5005076;28;20034;-87
2023/10/04 10:32:54;;;;;;;9.10;3.30;;;;;;;16.16;100.00;102644.56;5000787;28;20045;-87
2023/10/04 10:35:56;;;;;;;13.30;3.03;;;;;;;16.25;100.00;102640.38;5009222;28;20022;-87
2023/10/04 10:38:40;;;;;;;11.53;3.10;;;;;;;16.40;100.00;102649.72;5008352;28;20292;-87
2023/10/04 10:41:06;;;;;;;8.90;3.20;;;;;;;16.45;100.00;102639.78;5010589;28;20034;-87
2023/10/04 10:43:35;;;;;;;10.88;3.35;;;;;;;16.68;100.00;102634.34;5012550;28;20025;-87
2023/10/04 10:46:26;;;;;;;8.55;2.45;;;;;;;16.88;100.00;102631.84;5011043;28;20623;-87
2023/10/04 10:48:58;;;;;;;12.73;2.75;;;;;;;17.02;100.00;102634.97;5010815;28;20489;-87
2023/10/04 10:51:43;;;;;;;13.48;3.20;;;;;;;17.10;100.00;102637.22;5010239;28;20125;-85
2023/10/04 10:54:08;;;;;;;13.90;3.10;;;;;;;17.13;100.00;102641.28;5013931;28;20029;-87
2023/10/04 10:56:37;;;;;;;12.95;2.88;;;;;;;17.17;100.00;102630.75;5012036;28;20034;-89
2023/10/04 10:59:05;;;;;;;8.27;2.55;;;;;;;17.21;100.00;102637.28;5013745;28;20092;-88
2023/10/04 11:01:31;;;;;;;9.00;3.00;;;;;;;17.30;100.00;102626.78;5012968;28;20129;-87
2023/10/04 11:03:58;;;;;;;10.27;3.47;;;;;;;17.41;100.00;102623.09;5010282;28;20497;-87
2023/10/04 11:06:25;;;;;;;15.40;3.53;;;;;;;17.61;100.00;102629.72;5009713;28;20030;-88
2023/10/04 11:08:51;;;;;;;9.95;3.30;;;;;;;17.60;100.00;102612.63;5005506;28;20026;-88
2023/10/04 11:11:17;;;;;;;13.80;3.63;;;;;;;17.62;98.32;102621.31;5011083;28;20133;-88
2023/10/04 11:13:45;;;;;;;8.38;2.92;;;;;;;17.64;99.40;102607.50;5011052;28;20501;-88